Patterson Creek, West Virginia
Current Conditions -  °F | °C
As of 9:02 PM on Monday 22 Dec 2014 (Local Time) from KCBE Reporting Station
Overcast Overcast  
Wind Chill: 32°   Ceiling: 800
Heat Index: 32°   Visibility: 1.5mi
Dew Point: 32°   Wind: 0mph
Humidity: 100%   Direction: NA
Pressure: 30.16"   Gusts: NA
Location:  39.5435°N, 78.8115°W
Report Text: KCBE 230202Z AUTO 00000KT 1 1/2SM SCT002 OVC008 00/00 A3016 RMK AO1
Loading
Personal Weather Stations






























Interactive Weather Map New forecast layout! Learn more

10-Day Weather Forecast

Advertisements
Track Severe Weather on mobile